Terminal Aerodrome Forecast
Issued by NWS Sioux Falls, SD

Home | Current Version | Previous Version | Text Only | Print | Product List | Glossary On
Versions: 1 2 3 4 5 6 7 8 9 10 11 12 13 14 15 16
360
FTUS43 KFSD 082320
TAFHON
TAF
KHON 082320Z 0900/0924 30011KT P6SM BKN200
     FM090300 33012KT P6SM BKN200
     FM090800 34011KT P6SM SCT020 BKN110
     FM091400 33007KT P6SM BKN250
     FM091700 27006KT P6SM SCT250
     FM092100 21006KT P6SM FEW250=

USA.gov is the U.S. government's official web portal to all federal, state and local government web resources and services.